createdAt,value
2017-05-20T00:00:34.491Z,14.22
2017-05-20T00:01:34.181Z,14.36
2017-05-20T00:02:34.165Z,14.38
2017-05-20T00:03:34.456Z,14.39
2017-05-20T00:04:34.111Z,14.36
2017-05-20T00:05:34.401Z,14.3
2017-05-20T00:06:34.382Z,14.38
2017-05-20T00:07:34.364Z,14.39
2017-05-20T00:08:34.051Z,14.3
2017-05-20T00:09:34.021Z,14.36
2017-05-20T00:10:34.342Z,14.38
2017-05-20T00:11:33.982Z,14.38
2017-05-20T00:12:34.280Z,14.42
2017-05-20T00:13:33.981Z,14.4
2017-05-20T00:14:33.991Z,14.4
2017-05-20T00:15:33.926Z,14.51
2017-05-20T00:16:34.219Z,14.51
2017-05-20T00:17:33.948Z,14.51
2017-05-20T00:18:34.185Z,14.42
2017-05-20T00:19:34.152Z,14.4
2017-05-20T00:20:34.132Z,14.38
2017-05-20T00:21:33.971Z,14.26
2017-05-20T00:22:33.801Z,14.18
2017-05-20T00:23:34.104Z,14.11
2017-05-20T00:24:33.781Z,14.15
2017-05-20T00:25:34.048Z,14.21
2017-05-20T00:26:34.042Z,14.17
2017-05-20T00:27:34.008Z,14.21
2017-05-20T00:28:34.011Z,14.22
2017-05-20T00:29:34.012Z,14.11
2017-05-20T00:30:33.962Z,14.13
2017-05-20T00:31:33.772Z,14.15
2017-05-20T00:32:34.012Z,14.15
2017-05-20T00:33:33.913Z,14.2
2017-05-20T00:34:33.922Z,14.14
2017-05-20T00:35:33.870Z,14.11
2017-05-20T00:36:33.229Z,14.15
2017-05-20T00:37:33.857Z,14.11
2017-05-20T00:38:33.883Z,14.15
2017-05-20T00:39:33.843Z,13.95
2017-05-20T00:40:33.941Z,14.13
2017-05-20T00:41:33.892Z,14.1
2017-05-20T00:42:33.754Z,14.14
2017-05-20T00:43:33.743Z,14.18
2017-05-20T00:44:33.410Z,14.02
2017-05-20T00:45:33.764Z,13.92
2017-05-20T00:46:33.693Z,13.92
2017-05-20T00:47:33.733Z,13.97
2017-05-20T00:48:33.380Z,13.96
2017-05-20T00:49:33.451Z,13.9
2017-05-20T00:50:33.619Z,13.81
2017-05-20T00:51:33.736Z,13.81
2017-05-20T00:52:32.941Z,13.78
2017-05-20T00:53:33.557Z,13.74
2017-05-20T00:54:33.219Z,13.75
2017-05-20T00:55:33.511Z,13.72
2017-05-20T00:56:33.495Z,13.67
2017-05-20T00:57:33.210Z,13.74
2017-05-20T00:58:33.151Z,13.66
2017-05-20T00:59:33.121Z,13.65
2017-05-20T01:00:33.217Z,13.77
2017-05-20T01:01:33.398Z,13.85
2017-05-20T01:02:33.434Z,13.81
2017-05-20T01:03:32.744Z,13.85
2017-05-20T01:04:33.351Z,13.9
2017-05-20T01:05:33.342Z,13.81
2017-05-20T01:06:33.313Z,13.89
2017-05-20T01:07:33.297Z,13.88
2017-05-20T01:08:33.382Z,13.95
2017-05-20T01:09:33.255Z,13.89
2017-05-20T01:10:33.319Z,13.96
2017-05-20T01:11:33.208Z,13.92
2017-05-20T01:12:33.301Z,13.82
2017-05-20T01:13:32.876Z,13.89
2017-05-20T01:14:32.973Z,13.93
2017-05-20T01:15:33.172Z,14.03
2017-05-20T01:16:33.195Z,14.17
2017-05-20T01:17:32.792Z,14.13
2017-05-20T01:18:32.821Z,14.14
2017-05-20T01:19:32.750Z,14.1
2017-05-20T01:20:32.745Z,14.17
2017-05-20T01:21:32.725Z,14.18
2017-05-20T01:22:32.702Z,14.21
2017-05-20T01:23:32.682Z,14.15
2017-05-20T01:24:32.972Z,14.14
2017-05-20T01:25:32.654Z,13.95
2017-05-20T01:26:32.934Z,13.96
2017-05-20T01:27:32.324Z,13.97
2017-05-20T01:28:32.973Z,13.89
2017-05-20T01:29:32.283Z,13.84
2017-05-20T01:30:32.862Z,13.67
2017-05-20T01:31:32.532Z,13.65
2017-05-20T01:32:32.512Z,13.77
2017-05-20T01:33:32.501Z,13.82
2017-05-20T01:34:32.495Z,13.81
2017-05-20T01:35:32.780Z,13.8
2017-05-20T01:36:32.752Z,13.93
2017-05-20T01:37:32.424Z,14
2017-05-20T01:38:32.413Z,13.78
2017-05-20T01:39:32.404Z,13.81
2017-05-20T01:40:32.681Z,13.84
2017-05-20T01:41:32.364Z,13.77
2017-05-20T01:42:32.028Z,13.66
2017-05-20T01:43:32.330Z,13.63
2017-05-20T01:44:32.296Z,13.66
2017-05-20T01:45:32.592Z,13.67
2017-05-20T01:46:32.284Z,13.75
2017-05-20T01:47:32.557Z,13.67
2017-05-20T01:48:32.223Z,13.65
2017-05-20T01:49:32.532Z,13.62
2017-05-20T01:50:32.181Z,13.65
2017-05-20T01:51:32.567Z,13.7
2017-05-20T01:52:32.162Z,13.72
2017-05-20T01:53:31.913Z,13.75
2017-05-20T01:54:32.115Z,13.63
2017-05-20T01:55:32.422Z,13.56
2017-05-20T01:56:32.391Z,13.59
2017-05-20T01:57:32.162Z,13.52
2017-05-20T01:58:32.049Z,13.49
2017-05-20T01:59:32.443Z,13.56
2017-05-20T02:00:32.014Z,13.52
2017-05-20T02:01:31.995Z,13.48
2017-05-20T02:02:31.976Z,13.44
2017-05-20T02:03:32.005Z,13.38
2017-05-20T02:04:31.629Z,13.42
2017-05-20T02:05:32.291Z,13.38
2017-05-20T02:06:32.203Z,13.47
2017-05-20T02:07:32.263Z,13.4
2017-05-20T02:08:32.162Z,13.35
2017-05-20T02:09:31.843Z,13.22
2017-05-20T02:10:31.812Z,13.25
2017-05-20T02:11:32.112Z,13.15
2017-05-20T02:12:31.474Z,13.26
2017-05-20T02:13:32.084Z,13.29
2017-05-20T02:14:31.438Z,13.18
2017-05-20T02:15:32.053Z,13.21
2017-05-20T02:16:31.767Z,13.31
2017-05-20T02:17:31.462Z,13.23
2017-05-20T02:18:31.693Z,13.21
2017-05-20T02:19:31.723Z,13.25
2017-05-20T02:20:31.632Z,13.41
2017-05-20T02:21:31.623Z,13.41
2017-05-20T02:22:31.957Z,13.26
2017-05-20T02:23:31.589Z,13.31
2017-05-20T02:24:31.939Z,13.29
2017-05-20T02:25:31.914Z,13.29
2017-05-20T02:26:31.265Z,13.19
2017-05-20T02:27:31.595Z,13.23
2017-05-20T02:28:31.555Z,13.31
2017-05-20T02:29:31.493Z,13.14
2017-05-20T02:30:31.490Z,12.98
2017-05-20T02:31:31.733Z,12.97
2017-05-20T02:32:31.420Z,13
2017-05-20T02:33:31.176Z,12.96
2017-05-20T02:34:31.398Z,13.08
2017-05-20T02:35:31.681Z,12.88
2017-05-20T02:36:31.394Z,12.98
2017-05-20T02:37:31.353Z,13.07
2017-05-20T02:38:31.305Z,12.98
2017-05-20T02:39:31.592Z,12.96
2017-05-20T02:40:31.257Z,12.85
2017-05-20T02:41:31.550Z,12.88
2017-05-20T02:42:31.262Z,12.9
2017-05-20T02:43:31.607Z,12.88
2017-05-20T02:44:31.287Z,13.03
2017-05-20T02:45:31.556Z,13.03
2017-05-20T02:46:31.203Z,13.08
2017-05-20T02:47:31.508Z,13.04
2017-05-20T02:48:31.434Z,12.96
2017-05-20T02:49:31.455Z,12.78
2017-05-20T02:50:31.167Z,12.78
2017-05-20T02:51:31.418Z,12.76
2017-05-20T02:52:31.045Z,12.67
2017-05-20T02:53:31.324Z,12.81
2017-05-20T02:54:31.315Z,12.86
2017-05-20T02:55:30.983Z,12.9
2017-05-20T02:56:30.961Z,12.94
2017-05-20T02:57:30.946Z,12.89
2017-05-20T02:58:31.286Z,12.82
2017-05-20T02:59:30.916Z,12.82
2017-05-20T03:00:30.934Z,12.71
2017-05-20T03:01:31.273Z,12.81
2017-05-20T03:02:30.842Z,12.68
2017-05-20T03:03:30.812Z,12.76
2017-05-20T03:04:30.805Z,12.85
2017-05-20T03:05:30.791Z,12.64
2017-05-20T03:06:31.074Z,12.53
2017-05-20T03:07:30.752Z,12.74
2017-05-20T03:08:31.058Z,12.61
2017-05-20T03:09:31.125Z,12.7
2017-05-20T03:10:31.000Z,12.71
2017-05-20T03:11:30.665Z,12.74
2017-05-20T03:12:30.954Z,12.7
2017-05-20T03:13:31.012Z,12.83
2017-05-20T03:14:30.914Z,12.9
2017-05-20T03:15:31.055Z,12.88
2017-05-20T03:16:30.884Z,13.01
2017-05-20T03:17:30.926Z,13
2017-05-20T03:18:30.554Z,12.9
2017-05-20T03:19:30.521Z,12.94
2017-05-20T03:20:30.844Z,12.83
2017-05-20T03:21:30.474Z,12.71
2017-05-20T03:22:30.451Z,12.76
2017-05-20T03:23:30.794Z,12.67
2017-05-20T03:24:30.755Z,12.68
2017-05-20T03:25:30.396Z,12.67
2017-05-20T03:26:30.702Z,12.67
2017-05-20T03:27:30.056Z,12.57
2017-05-20T03:28:30.045Z,12.64
2017-05-20T03:29:30.334Z,12.52
2017-05-20T03:30:30.616Z,12.57
2017-05-20T03:31:30.287Z,12.6
2017-05-20T03:32:30.601Z,12.6
2017-05-20T03:33:30.343Z,12.64
2017-05-20T03:34:30.236Z,12.61
2017-05-20T03:35:30.288Z,12.61
2017-05-20T03:36:29.884Z,12.48
2017-05-20T03:37:30.488Z,12.46
2017-05-20T03:38:30.483Z,12.4
2017-05-20T03:39:30.136Z,12.45
2017-05-20T03:40:30.422Z,12.48
2017-05-20T03:41:30.134Z,12.55
2017-05-20T03:42:30.073Z,12.42
2017-05-20T03:43:30.154Z,12.42
2017-05-20T03:44:29.731Z,12.35
2017-05-20T03:45:29.813Z,12.4
2017-05-20T03:46:29.700Z,12.43
2017-05-20T03:47:29.771Z,12.52
2017-05-20T03:48:30.269Z,12.53
2017-05-20T03:49:30.271Z,12.53
2017-05-20T03:50:30.224Z,12.5
2017-05-20T03:51:29.684Z,12.53
2017-05-20T03:52:30.198Z,12.63
2017-05-20T03:53:30.313Z,12.55
2017-05-20T03:54:30.155Z,12.67
2017-05-20T03:55:29.876Z,12.5
2017-05-20T03:56:29.800Z,12.53
2017-05-20T03:57:30.193Z,12.65
2017-05-20T03:58:30.074Z,12.67
2017-05-20T03:59:30.053Z,12.58
2017-05-20T04:00:29.784Z,12.65
2017-05-20T04:01:29.763Z,12.71
2017-05-20T04:02:29.691Z,12.81
2017-05-20T04:03:29.685Z,12.83
2017-05-20T04:04:29.653Z,12.79
2017-05-20T04:05:29.953Z,12.83
2017-05-20T04:06:29.674Z,12.88
2017-05-20T04:07:29.746Z,12.85
2017-05-20T04:08:29.896Z,12.79
2017-05-20T04:09:29.945Z,12.83
2017-05-20T04:10:29.907Z,12.79
2017-05-20T04:11:29.525Z,12.78
2017-05-20T04:12:29.502Z,12.7
2017-05-20T04:13:29.182Z,12.71
2017-05-20T04:14:29.835Z,12.6
2017-05-20T04:15:29.585Z,12.5
2017-05-20T04:16:29.117Z,12.53
2017-05-20T04:17:29.553Z,12.6
2017-05-20T04:18:29.804Z,12.68
2017-05-20T04:19:29.472Z,12.65
2017-05-20T04:20:29.799Z,12.64
2017-05-20T04:21:29.635Z,12.65
2017-05-20T04:22:29.371Z,12.74
2017-05-20T04:23:29.292Z,12.85
2017-05-20T04:24:29.279Z,12.82
2017-05-20T04:25:29.253Z,12.83
2017-05-20T04:26:29.542Z,12.83
2017-05-20T04:27:29.533Z,12.76
2017-05-20T04:28:28.893Z,12.73
2017-05-20T04:29:29.537Z,12.52
2017-05-20T04:30:29.185Z,12.64
2017-05-20T04:31:29.133Z,12.73
2017-05-20T04:32:29.122Z,12.76
2017-05-20T04:33:29.475Z,12.61
2017-05-20T04:34:29.094Z,12.58
2017-05-20T04:35:29.378Z,12.65
2017-05-20T04:36:29.101Z,12.6
2017-05-20T04:37:29.033Z,12.57
2017-05-20T04:38:29.011Z,12.6
2017-05-20T04:39:28.986Z,12.63
2017-05-20T04:40:28.978Z,12.61
2017-05-20T04:41:28.644Z,12.79
2017-05-20T04:42:29.232Z,12.79
2017-05-20T04:43:28.914Z,12.79
2017-05-20T04:44:28.902Z,12.57
2017-05-20T04:45:28.879Z,12.63
2017-05-20T04:46:29.182Z,12.68
2017-05-20T04:47:29.138Z,12.7
2017-05-20T04:48:29.124Z,12.74
2017-05-20T04:49:28.803Z,12.78
2017-05-20T04:50:29.093Z,12.46
2017-05-20T04:51:29.094Z,12.37
2017-05-20T04:52:29.073Z,12.46
2017-05-20T04:53:29.100Z,12.4
2017-05-20T04:54:29.013Z,12.49
2017-05-20T04:55:29.096Z,12.6
2017-05-20T04:56:28.985Z,12.53
2017-05-20T04:57:28.351Z,12.57
2017-05-20T04:58:28.625Z,12.68
2017-05-20T04:59:28.980Z,12.7
2017-05-20T05:00:28.903Z,12.64
2017-05-20T05:01:28.564Z,12.63
2017-05-20T05:02:28.543Z,12.5
2017-05-20T05:03:28.523Z,12.58
2017-05-20T05:04:28.847Z,12.57
2017-05-20T05:05:28.805Z,12.57
2017-05-20T05:06:28.483Z,12.53
2017-05-20T05:07:28.453Z,12.5
2017-05-20T05:08:28.436Z,12.6
2017-05-20T05:09:28.423Z,12.57
2017-05-20T05:10:28.709Z,12.58
2017-05-20T05:11:28.681Z,12.46
2017-05-20T05:12:28.675Z,12.4
2017-05-20T05:13:28.756Z,12.43
2017-05-20T05:14:28.632Z,12.65
2017-05-20T05:15:28.353Z,12.42
2017-05-20T05:16:28.584Z,12.53
2017-05-20T05:17:28.333Z,12.71
2017-05-20T05:18:28.253Z,12.81
2017-05-20T05:19:28.594Z,12.79
2017-05-20T05:20:28.204Z,12.79
2017-05-20T05:21:28.302Z,12.74
2017-05-20T05:22:28.494Z,12.73
2017-05-20T05:23:28.465Z,12.73
2017-05-20T05:24:28.437Z,12.85
2017-05-20T05:25:28.439Z,12.89
2017-05-20T05:26:28.394Z,12.97
2017-05-20T05:27:28.450Z,13
2017-05-20T05:28:28.084Z,12.82
2017-05-20T05:29:27.743Z,12.73
2017-05-20T05:30:28.017Z,12.78
2017-05-20T05:31:28.074Z,12.71
2017-05-20T05:32:27.982Z,12.6
2017-05-20T05:33:28.315Z,12.57
2017-05-20T05:34:28.264Z,12.73
2017-05-20T05:35:28.032Z,12.81
2017-05-20T05:36:27.912Z,12.88
2017-05-20T05:37:27.956Z,13.01
2017-05-20T05:38:28.319Z,13.01
2017-05-20T05:39:27.954Z,12.98
2017-05-20T05:40:27.913Z,13.07
2017-05-20T05:41:28.117Z,13.22
2017-05-20T05:42:27.796Z,13.11
2017-05-20T05:43:27.775Z,13.14
2017-05-20T05:44:28.093Z,13.08
2017-05-20T05:45:28.155Z,13.22
2017-05-20T05:46:28.093Z,13.22
2017-05-20T05:47:27.742Z,13.23
2017-05-20T05:48:28.138Z,13.31
2017-05-20T05:49:27.703Z,13.4
2017-05-20T05:50:27.335Z,13.25
2017-05-20T05:51:27.686Z,13.31
2017-05-20T05:52:27.652Z,13.42
2017-05-20T05:53:27.633Z,13.42
2017-05-20T05:54:27.944Z,13.47
2017-05-20T05:55:27.603Z,13.6
2017-05-20T05:56:27.536Z,13.59
2017-05-20T05:57:27.533Z,13.56
2017-05-20T05:58:27.511Z,13.29
2017-05-20T05:59:27.484Z,13.33
2017-05-20T06:00:27.803Z,13.47
2017-05-20T06:01:27.451Z,13.6
2017-05-20T06:02:27.743Z,13.56
2017-05-20T06:03:27.093Z,13.44
2017-05-20T06:04:27.393Z,13.38
2017-05-20T06:05:27.363Z,13.45
2017-05-20T06:06:27.673Z,13.44
2017-05-20T06:07:27.322Z,13.42
2017-05-20T06:08:27.328Z,13.4
2017-05-20T06:09:27.289Z,13.41
2017-05-20T06:10:27.282Z,13.37
2017-05-20T06:11:27.617Z,13.21
2017-05-20T06:12:27.619Z,13.29
2017-05-20T06:13:27.555Z,13.44
2017-05-20T06:14:27.251Z,13.38
2017-05-20T06:15:27.584Z,13.48
2017-05-20T06:16:27.544Z,13.55
2017-05-20T06:17:27.454Z,13.63
2017-05-20T06:18:27.443Z,13.8
2017-05-20T06:19:27.122Z,13.71
2017-05-20T06:20:27.394Z,13.67
2017-05-20T06:21:27.425Z,13.65
2017-05-20T06:22:27.070Z,13.7
2017-05-20T06:23:27.022Z,13.66
2017-05-20T06:24:27.331Z,13.67
2017-05-20T06:25:27.314Z,13.63
2017-05-20T06:26:27.312Z,13.7
2017-05-20T06:27:27.273Z,13.78
2017-05-20T06:28:26.940Z,13.71
2017-05-20T06:29:26.935Z,13.63
2017-05-20T06:30:26.912Z,13.63
2017-05-20T06:31:27.193Z,13.6
2017-05-20T06:32:26.865Z,13.63
2017-05-20T06:33:27.231Z,13.78
2017-05-20T06:34:26.845Z,13.8
2017-05-20T06:35:26.816Z,13.81
2017-05-20T06:36:26.797Z,13.88
2017-05-20T06:37:26.792Z,13.93
2017-05-20T06:38:27.062Z,13.92
2017-05-20T06:39:26.750Z,13.97
2017-05-20T06:40:26.728Z,13.9
2017-05-20T06:41:26.722Z,13.88
2017-05-20T06:42:26.689Z,13.89
2017-05-20T06:43:26.664Z,13.88
2017-05-20T06:44:26.970Z,13.88
2017-05-20T06:45:26.998Z,14.02
2017-05-20T06:46:26.620Z,14.14
2017-05-20T06:47:26.610Z,14.21
2017-05-20T06:48:26.586Z,14.18
2017-05-20T06:49:26.899Z,13.97
2017-05-20T06:50:26.547Z,14.08
2017-05-20T06:51:26.843Z,14.17
2017-05-20T06:52:26.512Z,14.33
2017-05-20T06:53:26.509Z,14.26
2017-05-20T06:54:26.793Z,14.4
2017-05-20T06:55:26.762Z,14.46
2017-05-20T06:56:26.756Z,14.54
2017-05-20T06:57:26.732Z,14.62
2017-05-20T06:58:26.721Z,14.7
2017-05-20T06:59:26.694Z,14.72
2017-05-20T07:00:26.682Z,14.48
2017-05-20T07:01:26.651Z,14.46
2017-05-20T07:02:26.721Z,14.6
2017-05-20T07:03:26.320Z,14.73
2017-05-20T07:04:26.618Z,14.8
2017-05-20T07:05:26.604Z,14.87
2017-05-20T07:06:26.568Z,14.91
2017-05-20T07:07:26.572Z,15.03
2017-05-20T07:08:26.537Z,15.12
2017-05-20T07:09:26.544Z,15.28
2017-05-20T07:10:26.524Z,15.27
2017-05-20T07:11:26.181Z,15.29
2017-05-20T07:12:26.483Z,15.09
2017-05-20T07:13:26.447Z,15.14
2017-05-20T07:14:26.442Z,15.16
2017-05-20T07:15:26.423Z,15.2
2017-05-20T07:16:25.847Z,15.25
2017-05-20T07:17:26.076Z,15.24
2017-05-20T07:18:26.443Z,15.47
2017-05-20T07:19:26.042Z,15.54
2017-05-20T07:20:26.420Z,15.69
2017-05-20T07:21:26.377Z,15.57
2017-05-20T07:22:26.010Z,15.46
2017-05-20T07:23:26.292Z,15.46
2017-05-20T07:24:25.974Z,15.61
2017-05-20T07:25:25.943Z,15.62
2017-05-20T07:26:26.268Z,15.49
2017-05-20T07:27:25.915Z,15.57
2017-05-20T07:28:26.254Z,15.5
2017-05-20T07:29:26.203Z,15.68
2017-05-20T07:30:26.243Z,15.6
2017-05-20T07:31:26.160Z,15.77
2017-05-20T07:32:26.142Z,15.62
2017-05-20T07:33:26.123Z,15.46
2017-05-20T07:34:26.114Z,15.5
2017-05-20T07:35:25.783Z,15.39
2017-05-20T07:36:26.073Z,15.46
2017-05-20T07:37:26.063Z,15.65
2017-05-20T07:38:25.766Z,15.79
2017-05-20T07:39:26.087Z,15.8
2017-05-20T07:40:26.009Z,16
2017-05-20T07:41:26.004Z,15.72
2017-05-20T07:42:25.678Z,15.79
2017-05-20T07:43:25.652Z,15.62
2017-05-20T07:44:25.336Z,15.68
2017-05-20T07:45:25.927Z,15.9
2017-05-20T07:46:25.722Z,15.69
2017-05-20T07:47:25.581Z,15.79
2017-05-20T07:48:25.982Z,15.89
2017-05-20T07:49:25.884Z,15.85
2017-05-20T07:50:25.903Z,15.69
2017-05-20T07:51:25.833Z,15.9
2017-05-20T07:52:25.502Z,15.86
2017-05-20T07:53:25.813Z,16.02
2017-05-20T07:54:25.782Z,16.23
2017-05-20T07:55:25.761Z,16.21
2017-05-20T07:56:25.772Z,16.35
2017-05-20T07:57:25.134Z,16.58
2017-05-20T07:58:25.734Z,16.75
2017-05-20T07:59:25.701Z,16.76
2017-05-20T08:00:25.702Z,16.53
2017-05-20T08:01:25.435Z,16.46
2017-05-20T08:02:25.376Z,16.43
2017-05-20T08:03:25.039Z,16.31
2017-05-20T08:04:25.632Z,16.17
2017-05-20T08:05:25.313Z,16.23
2017-05-20T08:06:25.613Z,16.16
2017-05-20T08:07:25.575Z,16.41
2017-05-20T08:08:24.949Z,16.66
2017-05-20T08:09:25.549Z,16.74
2017-05-20T08:10:24.921Z,16.81
2017-05-20T08:11:25.525Z,16.76
2017-05-20T08:12:25.191Z,16.96
2017-05-20T08:13:25.484Z,17.18
2017-05-20T08:14:25.179Z,17.34
2017-05-20T08:15:25.462Z,17.48
2017-05-20T08:16:25.443Z,17.46
2017-05-20T08:17:25.438Z,17.72
2017-05-20T08:18:25.124Z,17.7
2017-05-20T08:19:25.411Z,17.95
2017-05-20T08:20:25.393Z,18.11
2017-05-20T08:21:25.058Z,18.32
2017-05-20T08:22:25.363Z,18.1
2017-05-20T08:23:25.336Z,17.55
2017-05-20T08:24:25.337Z,17.77
2017-05-20T08:25:25.009Z,17.65
2017-05-20T08:26:24.972Z,17.83
2017-05-20T08:27:24.982Z,18.08
2017-05-20T08:28:25.258Z,18.38
2017-05-20T08:29:25.261Z,18.27
2017-05-20T08:30:24.923Z,18.25
2017-05-20T08:31:25.235Z,17.64
2017-05-20T08:32:25.226Z,17.83
2017-05-20T08:33:24.587Z,18.3
2017-05-20T08:34:24.883Z,18.8
2017-05-20T08:35:24.862Z,18.65
2017-05-20T08:36:24.849Z,18.75
2017-05-20T08:37:25.153Z,18.95
2017-05-20T08:38:24.516Z,19.11
2017-05-20T08:39:25.127Z,19.15
2017-05-20T08:40:24.806Z,19.25
2017-05-20T08:41:25.160Z,19.37
2017-05-20T08:42:24.765Z,19.51
2017-05-20T08:43:24.500Z,19.38
2017-05-20T08:44:25.069Z,19.44
2017-05-20T08:45:24.738Z,19.92
2017-05-20T08:46:24.422Z,20.32
2017-05-20T08:47:25.032Z,20.16
2017-05-20T08:48:25.014Z,20.23
2017-05-20T08:49:24.704Z,20.2
2017-05-20T08:50:24.999Z,20.41
2017-05-20T08:51:24.683Z,20.47
2017-05-20T08:52:24.676Z,20.4
2017-05-20T08:53:24.974Z,19.73
2017-05-20T08:54:24.362Z,19.69
2017-05-20T08:55:24.943Z,19.98
2017-05-20T08:56:24.952Z,20.16
2017-05-20T08:57:24.934Z,19.98
2017-05-20T08:58:24.313Z,20.13
2017-05-20T08:59:24.615Z,20.31
2017-05-20T09:00:24.920Z,19.71
2017-05-20T09:01:24.891Z,19.44
2017-05-20T09:02:24.888Z,19.51
2017-05-20T09:03:24.577Z,19.56
2017-05-20T09:04:24.863Z,19.77
2017-05-20T09:05:24.851Z,20.1
2017-05-20T09:06:24.846Z,20.04
2017-05-20T09:07:24.843Z,20.11
2017-05-20T09:08:24.585Z,20.13
2017-05-20T09:09:24.520Z,19.06
2017-05-20T09:10:24.512Z,18.8
2017-05-20T09:11:24.500Z,18.82
2017-05-20T09:12:24.492Z,18.63
2017-05-20T09:13:24.481Z,18.58
2017-05-20T09:14:24.463Z,18.32
2017-05-20T09:15:24.463Z,18.05
2017-05-20T09:16:24.765Z,18.18
2017-05-20T09:17:24.473Z,18.07
2017-05-20T09:18:24.143Z,18.01
2017-05-20T09:19:24.432Z,18.01
2017-05-20T09:20:24.710Z,18.11
2017-05-20T09:21:24.393Z,18.05
2017-05-20T09:22:24.692Z,18.19
2017-05-20T09:23:24.372Z,17.95
2017-05-20T09:24:24.371Z,17.87
2017-05-20T09:25:24.383Z,17.96
2017-05-20T09:26:24.332Z,17.98
2017-05-20T09:27:24.337Z,17.58
2017-05-20T09:28:24.308Z,17.48
2017-05-20T09:29:24.620Z,17.44
2017-05-20T09:30:24.584Z,17.6
2017-05-20T09:31:24.293Z,17.87
2017-05-20T09:32:24.265Z,17.92
2017-05-20T09:33:24.558Z,18.11
2017-05-20T09:34:24.245Z,18.56
2017-05-20T09:35:24.215Z,19.22
2017-05-20T09:36:24.212Z,19.38
2017-05-20T09:37:24.290Z,19.78
2017-05-20T09:38:24.181Z,19.3
2017-05-20T09:39:24.263Z,19.26
2017-05-20T09:40:24.476Z,19.26
2017-05-20T09:41:24.466Z,18.75
2017-05-20T09:42:24.154Z,18.78
2017-05-20T09:43:24.188Z,18.67
2017-05-20T09:44:24.492Z,18.66
2017-05-20T09:45:24.424Z,18.41
2017-05-20T09:46:24.450Z,18.5
2017-05-20T09:47:24.423Z,18.02
2017-05-20T09:48:24.082Z,17.8
2017-05-20T09:49:24.117Z,18.11
2017-05-20T09:50:24.346Z,18.67
2017-05-20T09:51:24.353Z,19.31
2017-05-20T09:52:24.333Z,19.49
2017-05-20T09:53:24.352Z,19.55
2017-05-20T09:54:24.317Z,19.81
2017-05-20T09:55:24.281Z,20.22
2017-05-20T09:56:24.285Z,20.18
2017-05-20T09:57:24.281Z,20.73
2017-05-20T09:58:24.283Z,20.89
2017-05-20T09:59:24.284Z,21.1
2017-05-20T10:00:24.332Z,21.25
2017-05-20T10:01:24.236Z,21.28
2017-05-20T10:02:24.238Z,20.69
2017-05-20T10:03:24.225Z,20.67
2017-05-20T10:04:24.214Z,20.47
2017-05-20T10:05:24.197Z,20.2
2017-05-20T10:06:23.881Z,19.89
2017-05-20T10:07:24.191Z,19.73
2017-05-20T10:08:24.192Z,19.73
2017-05-20T10:09:23.549Z,19.67
2017-05-20T10:10:24.172Z,19.33
2017-05-20T10:11:24.142Z,19.44
2017-05-20T10:12:24.142Z,19.67
2017-05-20T10:13:24.114Z,20.2
2017-05-20T10:14:23.493Z,20.64
2017-05-20T10:15:24.114Z,21.06
2017-05-20T10:16:24.085Z,21.07
2017-05-20T10:17:24.078Z,21.37
2017-05-20T10:18:24.063Z,21.09
2017-05-20T10:19:24.049Z,21.19
2017-05-20T10:20:24.034Z,21.02
2017-05-20T10:21:23.729Z,20.84
2017-05-20T10:22:24.022Z,21.24
2017-05-20T10:23:24.054Z,21.66
2017-05-20T10:24:23.445Z,21.76
2017-05-20T10:25:23.742Z,22.1
2017-05-20T10:26:23.662Z,22.12
2017-05-20T10:27:23.976Z,22.21
2017-05-20T10:28:23.685Z,21.81
2017-05-20T10:29:24.073Z,21.26
2017-05-20T10:30:23.638Z,21.06
2017-05-20T10:31:24.053Z,20.94
2017-05-20T10:32:23.622Z,21
2017-05-20T10:33:24.006Z,21.15
2017-05-20T10:34:23.892Z,20.67
2017-05-20T10:35:23.912Z,20.49
2017-05-20T10:36:23.887Z,20.58
2017-05-20T10:37:23.592Z,20.79
2017-05-20T10:38:23.553Z,21.11
2017-05-20T10:39:23.922Z,21.07
2017-05-20T10:40:23.830Z,20.79
2017-05-20T10:41:23.891Z,20.43
2017-05-20T10:42:23.872Z,20.43
2017-05-20T10:43:23.570Z,20.76
2017-05-20T10:44:23.794Z,21.02
2017-05-20T10:45:23.771Z,21
2017-05-20T10:46:23.757Z,20.87
2017-05-20T10:47:23.774Z,20.62
2017-05-20T10:48:23.782Z,20.25
2017-05-20T10:49:23.725Z,20.22
2017-05-20T10:50:23.771Z,20.23
2017-05-20T10:51:23.713Z,20.04
2017-05-20T10:52:23.388Z,19.95
2017-05-20T10:53:23.695Z,20.03
2017-05-20T10:54:23.666Z,19.85
2017-05-20T10:55:23.663Z,19.95
2017-05-20T10:56:23.344Z,20.22
2017-05-20T10:57:23.637Z,20.54
2017-05-20T10:58:23.001Z,20.97
2017-05-20T10:59:23.614Z,21.44
2017-05-20T11:00:23.613Z,21.83
2017-05-20T11:01:23.262Z,22.02
2017-05-20T11:02:23.263Z,22.36
2017-05-20T11:03:23.556Z,22.59
2017-05-20T11:04:23.242Z,23.02
2017-05-20T11:05:23.222Z,23.22
2017-05-20T11:06:23.210Z,23.06
2017-05-20T11:07:23.513Z,23.27
2017-05-20T11:08:23.503Z,23.6
2017-05-20T11:09:23.507Z,23.73
2017-05-20T11:10:23.492Z,23.6
2017-05-20T11:11:23.473Z,23.82
2017-05-20T11:12:23.450Z,23.96
2017-05-20T11:13:23.453Z,24.27
2017-05-20T11:14:23.450Z,24.19
2017-05-20T11:15:23.418Z,24.07
2017-05-20T11:16:23.417Z,23.7
2017-05-20T11:17:23.114Z,22.95
2017-05-20T11:18:23.415Z,22.69
2017-05-20T11:19:23.384Z,22.57
2017-05-20T11:20:23.080Z,22.77
2017-05-20T11:21:23.062Z,23.04
2017-05-20T11:22:23.044Z,23.14
2017-05-20T11:23:23.353Z,23.28
2017-05-20T11:24:23.024Z,23.48
2017-05-20T11:25:23.016Z,23.29
2017-05-20T11:26:23.300Z,22.99
2017-05-20T11:27:22.677Z,22.99
2017-05-20T11:28:23.292Z,22.88
2017-05-20T11:29:23.289Z,22.59
2017-05-20T11:30:23.287Z,22.59
2017-05-20T11:31:22.648Z,22.21
2017-05-20T11:32:23.256Z,21.88
2017-05-20T11:33:22.932Z,21.47
2017-05-20T11:34:22.933Z,21.44
2017-05-20T11:35:23.223Z,21.06
2017-05-20T11:36:23.223Z,20.81
2017-05-20T11:37:23.206Z,20.76
2017-05-20T11:38:23.174Z,20.85
2017-05-20T11:39:23.166Z,21.26
2017-05-20T11:40:22.907Z,21.46
2017-05-20T11:41:23.162Z,21.66
2017-05-20T11:42:22.525Z,22.1
2017-05-20T11:43:23.156Z,22.52
2017-05-20T11:44:22.812Z,22.95
2017-05-20T11:45:22.804Z,22.61
2017-05-20T11:46:23.109Z,22.55
2017-05-20T11:47:23.117Z,22.47
2017-05-20T11:48:22.466Z,22.11
2017-05-20T11:49:23.072Z,21.83
2017-05-20T11:50:22.743Z,21.47
2017-05-20T11:51:23.035Z,21.58
2017-05-20T11:52:22.718Z,21.5
2017-05-20T11:53:22.714Z,21.56
2017-05-20T11:54:22.752Z,21.77
2017-05-20T11:55:23.004Z,22.14
2017-05-20T11:56:22.996Z,22.5
2017-05-20T11:57:22.973Z,22.69
2017-05-20T11:58:22.974Z,22.65
2017-05-20T11:59:22.338Z,22.52
2017-05-20T12:00:22.932Z,22.33
2017-05-20T12:01:22.923Z,22.36
2017-05-20T12:02:22.604Z,22.36
2017-05-20T12:03:22.305Z,22.65
2017-05-20T12:04:22.594Z,22.77
2017-05-20T12:05:22.272Z,22.85
2017-05-20T12:06:22.564Z,22.99
2017-05-20T12:07:22.547Z,23.32
2017-05-20T12:08:22.853Z,23.47
2017-05-20T12:09:22.853Z,23.52
2017-05-20T12:10:22.856Z,23.52
2017-05-20T12:11:22.813Z,23.29
2017-05-20T12:12:22.826Z,23.12
2017-05-20T12:13:22.488Z,22.91
2017-05-20T12:14:22.786Z,22.8
2017-05-20T12:15:22.763Z,22.62
2017-05-20T12:16:22.454Z,22.47
2017-05-20T12:17:22.446Z,22.39
2017-05-20T12:18:22.747Z,22.33
2017-05-20T12:19:22.427Z,22.37
2017-05-20T12:20:22.476Z,22.35
2017-05-20T12:21:22.407Z,22.47
2017-05-20T12:22:22.457Z,22.37
2017-05-20T12:23:22.693Z,22.39
2017-05-20T12:24:22.685Z,22.24
2017-05-20T12:25:22.361Z,22.12
2017-05-20T12:26:22.054Z,21.93
2017-05-20T12:27:22.641Z,21.9
2017-05-20T12:28:22.654Z,21.92
2017-05-20T12:29:22.021Z,21.56
2017-05-20T12:30:22.723Z,21.54
2017-05-20T12:31:22.294Z,21.54
2017-05-20T12:32:22.410Z,21.4
2017-05-20T12:33:22.572Z,21.26
2017-05-20T12:34:21.964Z,21.15
2017-05-20T12:35:22.258Z,21.21
2017-05-20T12:36:22.031Z,21.24
2017-05-20T12:37:22.601Z,21.37
2017-05-20T12:38:22.645Z,21.43
2017-05-20T12:39:21.896Z,21.4
2017-05-20T12:40:21.957Z,21.4
2017-05-20T12:41:22.578Z,21.49
2017-05-20T12:42:21.960Z,21.44
2017-05-20T12:43:22.530Z,21.26
2017-05-20T12:44:22.146Z,21.1
2017-05-20T12:45:22.524Z,21.1
2017-05-20T12:46:22.434Z,21.17
2017-05-20T12:47:22.095Z,20.82
2017-05-20T12:48:22.400Z,21.11
2017-05-20T12:49:22.396Z,21.29
2017-05-20T12:50:22.076Z,21.24
2017-05-20T12:51:22.437Z,21.46
2017-05-20T12:52:22.404Z,21.81
2017-05-20T12:53:22.073Z,22.08
2017-05-20T12:54:22.388Z,22.1
2017-05-20T12:55:22.046Z,21.88
2017-05-20T12:56:22.296Z,21.8